createdAt,value
2022-10-08T00:02:43.095Z,101663.03
2022-10-08T00:11:05.094Z,101662.75
2022-10-08T00:25:29.757Z,101675.38
2022-10-08T00:27:59.233Z,101676.22
2022-10-08T00:30:31.029Z,101671.69
2022-10-08T00:33:01.757Z,101688.44
2022-10-08T00:35:33.807Z,101688.56
2022-10-08T00:41:02.365Z,101697.81
2022-10-08T00:44:16.714Z,101702.38
2022-10-08T00:47:09.788Z,101703.47
2022-10-08T00:53:06.704Z,101718.19
2022-10-08T00:56:02.906Z,101715.94
2022-10-08T01:11:05.378Z,101725.91
2022-10-08T01:13:44.928Z,101729.03
2022-10-08T01:16:45.661Z,101729.75
2022-10-08T01:19:38.542Z,101730.34
2022-10-08T01:22:22.471Z,101738.28
2022-10-08T01:25:10.507Z,101732.88
2022-10-08T01:27:50.284Z,101740.53
2022-10-08T01:30:25.202Z,101738.53
2022-10-08T01:33:06.276Z,101735.72
2022-10-08T01:35:46.653Z,101735.72
2022-10-08T01:38:21.461Z,101733.13
2022-10-08T01:41:00.819Z,101744.22
2022-10-08T01:43:39.504Z,101742.53
2022-10-08T01:46:19.646Z,101743.31
2022-10-08T01:48:52.145Z,101747.97
2022-10-08T01:51:29.705Z,101749.22
2022-10-08T01:54:12.811Z,101742.94
2022-10-08T01:56:47.146Z,101742.66
2022-10-08T01:59:27.853Z,101742.91
2022-10-08T02:02:03.554Z,101752.72
2022-10-08T02:04:39.425Z,101749.44
2022-10-08T02:07:10.259Z,101738.78
2022-10-08T02:09:42.175Z,101743.19
2022-10-08T02:12:13.147Z,101747.13
2022-10-08T02:14:50.549Z,101744.28
2022-10-08T02:17:26.993Z,101747.13
2022-10-08T02:20:01.066Z,101745.44
2022-10-08T02:22:34.964Z,101749.91
2022-10-08T02:25:11.561Z,101755.56
2022-10-08T02:27:52.418Z,101767.19
2022-10-08T02:30:26.801Z,101755.81
2022-10-08T02:33:04.592Z,101754.38
2022-10-08T02:35:45.712Z,101766.25
2022-10-08T02:38:22.578Z,101767.38
2022-10-08T02:40:58.274Z,101777.88
2022-10-08T02:43:33.057Z,101771.50
2022-10-08T02:46:15.226Z,101768.09
2022-10-08T02:48:48.387Z,101768.09
2022-10-08T02:51:19.951Z,101764.41
2022-10-08T02:53:49.853Z,101768.09
2022-10-08T02:56:24.903Z,101773.34
2022-10-08T02:58:58.026Z,101778.63
2022-10-08T03:04:48.171Z,101775.66
2022-10-08T03:07:22.353Z,101774.56
2022-10-08T03:18:52.807Z,101769.88
2022-10-08T03:27:38.416Z,101771.50
2022-10-08T03:30:08.346Z,101788.66
2022-10-08T03:32:40.048Z,101777.88
2022-10-08T03:35:27.379Z,101790.25
2022-10-08T03:38:26.311Z,101802.00
2022-10-08T03:41:06.533Z,101804.81
2022-10-08T03:46:48.817Z,101810.75
2022-10-08T03:49:19.530Z,101807.59
2022-10-08T03:52:05.823Z,101817.75
2022-10-08T03:57:42.789Z,101820.81
2022-10-08T04:00:27.080Z,101826.22
2022-10-08T04:12:54.755Z,101837.59
2022-10-08T04:20:59.597Z,101841.47
2022-10-08T04:23:37.428Z,101840.38
2022-10-08T04:26:07.601Z,101840.63
2022-10-08T04:31:32.704Z,101847.59
2022-10-08T04:34:06.589Z,101855.31
2022-10-08T04:36:50.092Z,101852.63
2022-10-08T04:39:20.744Z,101860.13
2022-10-08T04:45:25.053Z,101858.28
2022-10-08T05:10:08.333Z,101867.38
2022-10-08T05:12:46.616Z,101868.34
2022-10-08T05:15:15.201Z,101861.97
2022-10-08T05:17:43.939Z,101870.44
2022-10-08T05:20:12.876Z,101870.31
2022-10-08T05:22:41.440Z,101874.88
2022-10-08T05:25:11.573Z,101883.41
2022-10-08T05:27:40.158Z,101879.16
2022-10-08T05:30:18.553Z,101880.16
2022-10-08T05:32:50.267Z,101875.00
2022-10-08T05:35:18.840Z,101876.22
2022-10-08T05:37:49.197Z,101881.13
2022-10-08T05:40:20.746Z,101893.97
2022-10-08T05:42:49.333Z,101892.72
2022-10-08T05:45:17.960Z,101898.25
2022-10-08T05:47:48.996Z,101911.56
2022-10-08T05:50:17.755Z,101906.31
2022-10-08T05:52:46.197Z,101910.25
2022-10-08T05:55:14.810Z,101906.47
2022-10-08T05:57:50.337Z,101904.38
2022-10-08T06:00:18.911Z,101904.38
2022-10-08T06:02:47.418Z,101905.59
2022-10-08T06:05:18.302Z,101904.88
2022-10-08T06:07:46.680Z,101906.47
2022-10-08T06:10:19.379Z,101914.41
2022-10-08T06:12:51.597Z,101912.72
2022-10-08T06:15:20.215Z,101918.09
2022-10-08T06:17:48.493Z,101922.72
2022-10-08T06:20:16.937Z,101928.81
2022-10-08T06:22:45.884Z,101925.41
2022-10-08T06:25:17.648Z,101931.88
2022-10-08T06:27:52.318Z,101935.69
2022-10-08T07:06:20.255Z,101974.72
2022-10-08T07:08:48.542Z,101974.72
2022-10-08T07:11:19.590Z,101981.22
2022-10-08T07:13:48.951Z,101978.13
2022-10-08T07:16:36.049Z,101987.56
2022-10-08T07:19:04.529Z,101982.69
2022-10-08T07:22:02.289Z,101999.56
2022-10-08T07:27:18.130Z,101999.19
2022-10-08T07:29:46.656Z,101993.72
2022-10-08T07:32:15.026Z,102002.63
2022-10-08T07:34:43.338Z,102008.38
2022-10-08T07:37:24.382Z,102007.03
2022-10-08T07:44:48.990Z,102007.50
2022-10-08T07:47:21.125Z,102009.97
2022-10-08T07:49:50.418Z,102012.66
2022-10-08T07:52:34.202Z,102018.53
2022-10-08T07:55:09.832Z,102024.41
2022-10-08T08:09:19.934Z,102028.22
2022-10-08T08:11:52.158Z,102037.00
2022-10-08T08:14:21.887Z,102033.47
2022-10-08T08:16:55.996Z,102030.66
2022-10-08T08:19:25.335Z,102031.16
2022-10-08T08:21:58.616Z,102033.09
2022-10-08T08:24:52.903Z,102045.09
2022-10-08T08:27:25.686Z,102043.88
2022-10-08T08:30:12.345Z,102042.50
2022-10-08T08:32:44.284Z,102043.72
2022-10-08T08:35:26.656Z,102054.88
2022-10-08T08:38:10.074Z,102051.81
2022-10-08T08:41:44.616Z,102058.16
2022-10-08T08:44:29.470Z,102054.31
2022-10-08T08:47:10.730Z,102065.25
2022-10-08T08:50:17.023Z,102068.88
2022-10-08T08:52:52.996Z,102066.41
2022-10-08T08:56:00.801Z,102059.66
2022-10-08T08:58:39.664Z,102068.16
2022-10-08T09:04:45.572Z,102077.78
2022-10-08T09:07:38.841Z,102083.25
2022-10-08T09:10:47.382Z,102084.94
2022-10-08T09:21:00.121Z,102088.72
2022-10-08T09:27:08.177Z,102092.81
2022-10-08T09:30:22.617Z,102096.91
2022-10-08T09:33:00.818Z,102091.88
2022-10-08T09:36:27.849Z,102081.91
2022-10-08T09:39:32.196Z,102087.75
2022-10-08T09:46:12.058Z,102093.72
2022-10-08T11:11:41.206Z,102130.44
2022-10-08T11:17:51.738Z,102129.22
2022-10-08T11:20:44.782Z,102127.09
2022-10-08T11:23:28.073Z,102137.16
2022-10-08T11:45:15.359Z,102135.94
2022-10-08T11:48:05.400Z,102135.88
2022-10-08T12:31:39.669Z,102105.16
2022-10-08T12:34:20.841Z,102103.28
2022-10-08T12:46:41.495Z,102090.06
2022-10-08T12:49:29.771Z,102092.75
2022-10-08T12:52:06.680Z,102093.16
2022-10-08T13:06:35.943Z,102092.44
2022-10-08T13:39:35.486Z,102061.16
2022-10-08T14:26:29.447Z,102031.38
2022-10-08T14:52:15.928Z,102020.22
2022-10-08T15:31:29.241Z,101985.09
2022-10-08T15:34:15.004Z,101980.63
2022-10-08T15:36:43.844Z,101982.38
2022-10-08T15:44:34.898Z,101967.94
2022-10-08T15:47:14.539Z,101967.25
2022-10-08T15:49:46.889Z,101962.50
2022-10-08T15:52:46.423Z,101965.44
2022-10-08T15:55:18.901Z,101958.31
2022-10-08T15:57:53.187Z,101960.72
2022-10-08T16:00:28.429Z,101956.59
2022-10-08T16:03:41.437Z,101952.53
2022-10-08T16:09:06.373Z,101943.69
2022-10-08T16:11:54.270Z,101941.66
2022-10-08T16:17:29.001Z,101941.81
2022-10-08T16:27:22.287Z,101941.41
2022-10-08T16:29:55.755Z,101942.84
2022-10-08T16:32:52.313Z,101949.50
2022-10-08T16:38:28.074Z,101928.47
2022-10-08T16:41:27.170Z,101938.13
2022-10-08T16:44:48.816Z,101937.38
2022-10-08T17:08:17.218Z,101945.69
2022-10-08T17:11:06.591Z,101940.69
2022-10-08T17:47:06.490Z,101922.72
2022-10-08T17:49:33.881Z,101926.50
2022-10-08T17:52:04.620Z,101920.84
2022-10-08T17:54:35.328Z,101929.69
2022-10-08T17:57:05.567Z,101925.88
2022-10-08T18:00:02.383Z,101938.50
2022-10-08T18:02:48.031Z,101937.72
2022-10-08T18:32:48.089Z,101936.56
2022-10-08T18:35:24.203Z,101936.03
2022-10-08T18:37:58.041Z,101930.81
2022-10-08T18:40:29.158Z,101931.44
2022-10-08T18:46:01.676Z,101927.56
2022-10-08T18:49:24.971Z,101933.84
2022-10-08T18:51:55.447Z,101932.03
2022-10-08T18:54:24.028Z,101929.34
2022-10-08T18:56:52.617Z,101930.03
2022-10-08T18:59:22.428Z,101934.69
2022-10-08T19:01:59.110Z,101933.09
2022-10-08T19:04:48.671Z,101938.34
2022-10-08T19:07:20.833Z,101935.13
2022-10-08T19:09:49.488Z,101929.50
2022-10-08T19:12:18.103Z,101933.28
2022-10-08T19:14:50.082Z,101929.25
2022-10-08T19:17:22.849Z,101925.16
2022-10-08T19:20:00.597Z,101925.56
2022-10-08T19:22:49.537Z,101940.19
2022-10-08T19:25:38.569Z,101933.56
2022-10-08T19:28:17.422Z,101935.53
2022-10-08T19:31:31.717Z,101924.00
2022-10-08T19:34:18.423Z,101926.59
2022-10-08T19:37:19.627Z,101916.69
2022-10-08T19:40:14.936Z,101908.53
2022-10-08T19:43:57.037Z,101907.28
2022-10-08T19:46:27.786Z,101908.81
2022-10-08T19:49:48.905Z,101906.81
2022-10-08T19:52:21.577Z,101910.44
2022-10-08T19:54:51.665Z,101899.28
2022-10-08T19:57:20.320Z,101900.59
2022-10-08T19:59:48.744Z,101902.75
2022-10-08T20:02:17.463Z,101908.97
2022-10-08T20:04:46.904Z,101899.22
2022-10-08T20:07:23.403Z,101887.84
2022-10-08T20:09:55.361Z,101895.78
2022-10-08T20:12:23.739Z,101888.81
2022-10-08T20:14:55.703Z,101895.16
2022-10-08T20:17:24.773Z,101900.41
2022-10-08T20:20:05.297Z,101890.31
2022-10-08T20:23:16.346Z,101886.66
2022-10-08T20:25:48.276Z,101885.59
2022-10-08T20:28:16.686Z,101880.09
2022-10-08T20:30:51.318Z,101873.53
2022-10-08T20:33:20.037Z,101866.66
2022-10-08T20:35:48.678Z,101863.81
2022-10-08T20:38:17.476Z,101868.13
2022-10-08T20:40:48.294Z,101868.59
2022-10-08T20:43:16.969Z,101867.94
2022-10-08T20:45:45.644Z,101867.19
2022-10-08T20:48:14.124Z,101868.28
2022-10-08T20:50:42.514Z,101864.97
2022-10-08T20:53:11.228Z,101862.28
2022-10-08T20:55:42.746Z,101867.84
2022-10-08T20:58:13.182Z,101862.84
2022-10-08T21:00:44.096Z,101849.97
2022-10-08T21:03:12.556Z,101858.44
2022-10-08T21:05:43.315Z,101859.94
2022-10-08T21:08:11.538Z,101853.28
2022-10-08T21:10:39.682Z,101855.69
2022-10-08T21:13:07.823Z,101853.44
2022-10-08T21:15:37.675Z,101854.63
2022-10-08T21:18:10.138Z,101855.69
2022-10-08T21:20:40.270Z,101853.13
2022-10-08T21:23:09.053Z,101846.13
2022-10-08T21:25:37.534Z,101848.19
2022-10-08T21:28:06.032Z,101843.03
2022-10-08T21:30:38.706Z,101840.47
2022-10-08T21:33:22.014Z,101853.09
2022-10-08T21:35:50.796Z,101847.13
2022-10-08T21:38:28.469Z,101852.69
2022-10-08T21:41:19.616Z,101850.19
2022-10-08T21:44:08.310Z,101844.84
2022-10-08T21:50:05.522Z,101845.06
2022-10-08T21:53:10.813Z,101836.91
2022-10-08T21:55:44.360Z,101829.00
2022-10-08T21:58:31.921Z,101833.38
2022-10-08T22:01:00.503Z,101828.16
2022-10-08T22:03:35.570Z,101828.22
2022-10-08T22:06:15.160Z,101819.66
2022-10-08T22:08:45.562Z,101826.97
2022-10-08T22:11:16.334Z,101820.75
2022-10-08T22:13:56.550Z,101819.97
2022-10-08T22:22:15.187Z,101821.25
2022-10-08T22:24:45.918Z,101818.69
2022-10-08T22:27:21.573Z,101822.22
2022-10-08T22:29:53.536Z,101813.22
2022-10-08T22:32:35.518Z,101816.66
2022-10-08T22:35:04.242Z,101804.75
2022-10-08T22:37:45.712Z,101802.72
2022-10-08T22:40:14.262Z,101793.31
2022-10-08T22:42:43.126Z,101789.44
2022-10-08T22:45:14.167Z,101788.59
2022-10-08T22:47:42.571Z,101783.22
2022-10-08T22:50:26.385Z,101776.94
2022-10-08T22:52:57.976Z,101788.38
2022-10-08T22:55:27.998Z,101765.44
2022-10-08T22:58:00.804Z,101773.59
2022-10-08T23:00:44.805Z,101765.44
2022-10-08T23:03:30.964Z,101763.41
2022-10-08T23:06:07.379Z,101761.47
2022-10-08T23:08:37.923Z,101759.63
2022-10-08T23:11:09.650Z,101751.59
2022-10-08T23:13:38.257Z,101748.50
2022-10-08T23:16:09.149Z,101757.28
2022-10-08T23:18:39.199Z,101752.56
2022-10-08T23:21:09.562Z,101748.91
2022-10-08T23:23:40.370Z,101741.72
2022-10-08T23:26:09.874Z,101735.53
2022-10-08T23:28:40.231Z,101744.41
2022-10-08T23:31:10.486Z,101728.34
2022-10-08T23:33:41.109Z,101724.69
2022-10-08T23:36:10.536Z,101726.50
2022-10-08T23:38:40.684Z,101722.97
2022-10-08T23:41:11.090Z,101711.59
2022-10-08T23:43:40.891Z,101708.00
2022-10-08T23:46:11.387Z,101700.03
2022-10-08T23:48:40.108Z,101703.81
2022-10-08T23:51:10.532Z,101695.88
2022-10-08T23:53:45.236Z,101702.31
2022-10-08T23:56:27.161Z,101691.72
2022-10-08T23:58:56.099Z,101682.91
